Time;durP1;ratioP1;P1;durP2;ratioP2;P2;SDS_P1;SDS_P2;PMS_P1;PMS_P2;Temp;Humidity;BMP_temperature;BMP_pressure;BME280_temperature;BME280_humidity;BME280_pressure;Samples;Min_cycle;Max_cycle;Signal;HPM_P1;HPM_P2
2023/05/11 00:02:10;;;;;;;1999.90;668.38;;;;;;;12.45;100.00;100927.81;5015357;28;20029;-71
2023/05/11 00:04:36;;;;;;;758.13;243.27;;;;;;;12.37;100.00;100927.81;5005403;28;20029;-75
2023/05/11 00:07:01;;;;;;;1841.23;544.47;;;;;;;12.39;100.00;100933.84;5012826;28;20101;-70
2023/05/11 00:09:27;;;;;;;1040.67;389.83;;;;;;;12.44;100.00;100931.50;5017769;28;20532;-71
2023/05/11 00:11:52;;;;;;;1155.53;406.20;;;;;;;12.46;100.00;100930.31;5023092;28;20452;-72
2023/05/11 00:14:18;;;;;;;965.60;334.87;;;;;;;12.47;100.00;100936.50;5021149;28;20120;-70
2023/05/11 00:16:43;;;;;;;1476.57;567.87;;;;;;;12.43;100.00;100938.69;5022915;28;20061;-71
2023/05/11 00:19:08;;;;;;;1251.17;461.03;;;;;;;12.40;100.00;100941.69;5021802;28;20033;-72
2023/05/11 00:21:34;;;;;;;1002.40;373.63;;;;;;;12.47;100.00;100944.53;5015210;28;20049;-70
2023/05/11 00:23:59;;;;;;;1597.10;557.57;;;;;;;12.40;100.00;100940.88;5034419;28;20074;-71
2023/05/11 00:26:25;;;;;;;1196.67;469.97;;;;;;;12.44;100.00;100950.25;5032233;28;20037;-72
2023/05/11 00:28:51;;;;;;;1320.35;462.23;;;;;;;12.40;100.00;100949.72;5006644;28;20280;-73
2023/05/11 00:31:16;;;;;;;1011.67;454.33;;;;;;;12.33;100.00;100945.22;5037948;28;20155;-72
2023/05/11 00:33:41;;;;;;;1597.57;570.70;;;;;;;12.35;100.00;100946.72;5020715;28;20025;-70
2023/05/11 00:36:07;;;;;;;1804.33;588.80;;;;;;;12.31;100.00;100947.25;5014721;28;20029;-71
2023/05/11 00:38:33;;;;;;;1600.87;598.37;;;;;;;12.23;100.00;100951.59;5021794;28;20064;-69
2023/05/11 00:40:58;;;;;;;1129.25;431.10;;;;;;;12.11;100.00;100936.06;5019514;28;20120;-71
2023/05/11 00:43:24;;;;;;;973.43;409.53;;;;;;;12.09;100.00;100949.59;5015226;28;20112;-71
2023/05/11 00:45:51;;;;;;;1894.68;532.10;;;;;;;11.90;100.00;100947.25;5038185;28;20150;-71
2023/05/11 00:48:16;;;;;;;1113.63;341.67;;;;;;;11.97;100.00;100956.28;5018752;28;20037;-71
2023/05/11 00:50:43;;;;;;;1783.40;551.42;;;;;;;12.03;100.00;100960.97;5034623;28;20030;-70
2023/05/11 00:53:10;;;;;;;1171.93;441.38;;;;;;;12.05;100.00;100961.63;5021177;28;20453;-70
2023/05/11 00:55:36;;;;;;;1100.80;401.00;;;;;;;11.92;100.00;100955.97;5037685;28;20457;-73
2023/05/11 00:58:04;;;;;;;701.50;314.00;;;;;;;11.74;100.00;100950.72;5037648;28;20022;-72
2023/05/11 01:00:29;;;;;;;749.90;231.68;;;;;;;11.75;100.00;100957.72;5013322;28;20048;-71
2023/05/11 01:02:55;;;;;;;813.80;307.83;;;;;;;11.80;100.00;100956.25;5013807;28;20022;-74
2023/05/11 01:05:21;;;;;;;1774.65;626.80;;;;;;;11.77;100.00;100953.03;5009501;28;20482;-72
2023/05/11 01:08:00;;;;;;;971.58;360.27;;;;;;;11.69;100.00;100951.22;5018255;28;20036;-70
2023/05/11 01:10:41;;;;;;;1482.00;513.65;;;;;;;11.78;100.00;100960.91;5033672;28;20500;-70
2023/05/11 01:13:33;;;;;;;1354.30;387.02;;;;;;;11.56;100.00;100953.50;5020633;28;20025;-70
2023/05/11 01:16:05;;;;;;;1139.47;371.65;;;;;;;11.53;100.00;100959.19;5011604;28;20037;-71
2023/05/11 01:18:47;;;;;;;835.55;245.95;;;;;;;11.57;100.00;100969.41;5004960;28;20500;-74
2023/05/11 01:21:16;;;;;;;705.45;328.27;;;;;;;11.61;100.00;100977.91;5037721;28;20049;-71
2023/05/11 01:24:04;;;;;;;646.60;279.08;;;;;;;11.45;100.00;100981.41;5020643;28;20021;-76
2023/05/11 01:27:22;;;;;;;1999.90;714.70;;;;;;;11.33;100.00;100977.34;5032621;28;20037;-73
2023/05/11 01:29:57;;;;;;;1705.25;612.63;;;;;;;11.37;100.00;100992.88;5021197;28;20036;-70
2023/05/11 01:32:26;;;;;;;1999.90;809.65;;;;;;;11.43;100.00;100994.09;5034850;28;20054;-72
2023/05/11 01:35:01;;;;;;;1999.90;562.45;;;;;;;11.36;100.00;100993.06;5021840;28;20103;-73
2023/05/11 01:37:29;;;;;;;1996.60;608.78;;;;;;;11.41;100.00;100999.59;5021351;28;20067;-70
2023/05/11 01:40:03;;;;;;;1233.90;433.52;;;;;;;11.39;100.00;100996.25;5021208;28;20056;-74
2023/05/11 01:42:46;;;;;;;957.25;320.17;;;;;;;11.45;100.00;100999.25;5024808;28;20092;-75
2023/05/11 01:45:13;;;;;;;1999.90;631.13;;;;;;;11.41;100.00;101007.63;5026351;28;20029;-72
2023/05/11 01:47:40;;;;;;;661.40;330.30;;;;;;;11.39;100.00;101004.25;5029353;28;20563;-71
2023/05/11 01:50:07;;;;;;;702.25;308.67;;;;;;;11.35;100.00;100996.72;5029123;28;20035;-71
2023/05/11 01:52:36;;;;;;;602.50;260.67;;;;;;;11.38;100.00;100999.09;5024501;28;20067;-71
2023/05/11 01:55:03;;;;;;;1525.53;452.95;;;;;;;11.44;100.00;101006.44;5030358;28;20113;-73
2023/05/11 01:57:32;;;;;;;595.88;251.73;;;;;;;11.36;100.00;101001.09;5036087;28;20036;-70
2023/05/11 02:00:00;;;;;;;705.08;294.13;;;;;;;11.46;100.00;101003.63;5038681;28;20511;-71
2023/05/11 02:02:27;;;;;;;641.28;319.77;;;;;;;11.45;100.00;101004.59;5019805;28;20029;-76
2023/05/11 02:04:53;;;;;;;1999.90;746.22;;;;;;;11.47;100.00;101007.97;5039045;28;20029;-71
2023/05/11 02:07:22;;;;;;;1999.90;986.58;;;;;;;11.43;100.00;101001.28;5007841;28;20052;-71
2023/05/11 02:09:49;;;;;;;1999.90;972.25;;;;;;;11.43;100.00;100999.44;5025436;28;20036;-71
2023/05/11 02:12:18;;;;;;;1999.90;917.08;;;;;;;11.43;100.00;101009.31;5028082;28;20511;-74
2023/05/11 02:14:45;;;;;;;1999.90;958.92;;;;;;;11.39;100.00;101006.09;5016712;28;20030;-72
2023/05/11 02:17:12;;;;;;;1999.90;788.20;;;;;;;11.41;100.00;101009.47;5047241;28;20497;-72
2023/05/11 02:19:40;;;;;;;1999.90;843.17;;;;;;;11.37;100.00;100998.22;5024460;28;20400;-71
2023/05/11 02:22:07;;;;;;;1999.90;736.72;;;;;;;11.34;100.00;101001.25;5032425;28;20480;-76
2023/05/11 02:24:33;;;;;;;1999.90;946.47;;;;;;;11.24;100.00;101003.22;5027521;28;20114;-73
2023/05/11 02:26:58;;;;;;;1999.90;939.65;;;;;;;11.30;100.00;101007.06;5025324;28;20029;-73
2023/05/11 02:29:25;;;;;;;1997.72;842.47;;;;;;;11.39;100.00;101016.78;5032647;28;20521;-74
2023/05/11 02:32:04;;;;;;;1924.10;773.40;;;;;;;11.39;100.00;101016.78;5019690;28;20053;-75
2023/05/11 02:34:37;;;;;;;1999.90;860.45;;;;;;;11.40;100.00;101024.66;5040213;28;20029;-70
2023/05/11 02:37:08;;;;;;;1999.90;759.78;;;;;;;11.43;100.00;101020.84;5032160;28;20360;-71
2023/05/11 02:39:36;;;;;;;1999.90;847.25;;;;;;;11.40;100.00;101024.66;5023883;28;20038;-71
2023/05/11 02:42:12;;;;;;;1999.90;861.00;;;;;;;11.43;100.00;101022.69;5024051;28;20065;-76
2023/05/11 02:44:44;;;;;;;1999.90;843.15;;;;;;;11.31;100.00;101014.94;5027835;28;20029;-71
2023/05/11 02:47:16;;;;;;;1999.90;888.38;;;;;;;11.32;100.00;101016.59;5020117;28;20509;-75
2023/05/11 02:49:46;;;;;;;1999.90;846.72;;;;;;;11.34;100.00;101019.94;5036705;28;20026;-77
2023/05/11 02:52:13;;;;;;;1908.05;676.15;;;;;;;11.32;100.00;101019.28;5016070;28;20514;-70
2023/05/11 02:54:43;;;;;;;1762.57;648.85;;;;;;;11.31;100.00;101030.16;5016616;28;20061;-70
2023/05/11 02:57:09;;;;;;;;;;;;;;;11.36;100.00;101034.00;5023866;28;20025;-70
2023/05/11 02:59:35;;;;;;;1999.90;806.55;;;;;;;11.35;100.00;101029.63;5046604;28;19913;-74
2023/05/11 03:02:01;;;;;;;1999.90;781.08;;;;;;;11.38;100.00;101032.00;5024003;28;20110;-74
2023/05/11 03:04:26;;;;;;;1999.90;828.73;;;;;;;11.33;100.00;101018.28;5033966;28;20026;-70
2023/05/11 03:06:52;;;;;;;1693.20;620.63;;;;;;;11.28;100.00;101025.09;5010955;28;20297;-70
2023/05/11 03:09:17;;;;;;;1849.20;636.17;;;;;;;11.27;100.00;101031.47;5023025;28;20035;-70
2023/05/11 03:11:46;;;;;;;1999.90;757.35;;;;;;;11.29;100.00;101024.94;5039570;28;20136;-72
2023/05/11 03:14:12;;;;;;;1990.47;769.80;;;;;;;11.28;100.00;101025.94;5022763;28;20428;-72
2023/05/11 03:16:38;;;;;;;1999.90;848.47;;;;;;;11.34;100.00;101027.97;5039960;28;20037;-71
2023/05/11 03:19:06;;;;;;;1999.90;760.75;;;;;;;11.34;100.00;101019.94;5020318;28;20018;-72
2023/05/11 03:21:34;;;;;;;1936.80;704.17;;;;;;;11.33;100.00;101028.97;5023124;28;20032;-70
2023/05/11 03:24:00;;;;;;;1999.90;602.13;;;;;;;11.27;100.00;101021.59;5032989;28;20085;-72
2023/05/11 03:26:28;;;;;;;1999.90;955.60;;;;;;;11.23;100.00;101027.41;5024107;28;20088;-74
2023/05/11 03:28:56;;;;;;;1999.90;743.30;;;;;;;11.29;100.00;101032.97;5037464;28;20144;-70
2023/05/11 03:31:22;;;;;;;1999.90;999.90;;;;;;;11.31;100.00;101030.97;5022894;28;20121;-71
2023/05/11 03:33:47;;;;;;;1999.90;747.83;;;;;;;11.22;100.00;101026.59;5038209;28;20139;-70
2023/05/11 03:36:14;;;;;;;1999.90;808.08;;;;;;;11.31;100.00;101030.97;5008647;28;20022;-71
2023/05/11 03:38:40;;;;;;;1389.30;592.00;;;;;;;11.33;100.00;101037.00;5039003;28;20025;-74
2023/05/11 03:41:14;;;;;;;1999.90;709.22;;;;;;;11.16;100.00;101021.88;5020252;28;20018;-74
2023/05/11 03:43:45;;;;;;;1999.90;768.78;;;;;;;11.21;100.00;101032.91;5002287;28;20037;-75
2023/05/11 03:46:12;;;;;;;1983.20;695.92;;;;;;;11.30;100.00;101029.28;5014247;28;20038;-74
2023/05/11 03:48:39;;;;;;;1999.90;686.17;;;;;;;11.30;100.00;101023.94;5032917;28;20025;-71
2023/05/11 03:51:05;;;;;;;1999.90;789.30;;;;;;;11.29;100.00;101032.13;5022069;28;20022;-70
2023/05/11 03:53:31;;;;;;;1999.90;851.38;;;;;;;11.41;100.00;101031.69;5016861;28;20085;-71
2023/05/11 03:55:57;;;;;;;1999.90;885.30;;;;;;;11.41;100.00;101028.16;5020887;28;20244;-73
2023/05/11 03:58:22;;;;;;;1999.90;837.57;;;;;;;11.43;100.00;101028.03;5039175;28;20512;-70
2023/05/11 04:00:48;;;;;;;1999.90;750.97;;;;;;;11.39;100.00;101028.31;5038139;28;20030;-73
2023/05/11 04:03:13;;;;;;;1999.90;751.53;;;;;;;11.39;100.00;101022.16;4998416;28;20272;-73
2023/05/11 04:05:39;;;;;;;1999.90;800.63;;;;;;;11.44;100.00;101032.34;5022109;28;20037;-70
2023/05/11 04:08:09;;;;;;;1999.90;792.28;;;;;;;11.42;100.00;101040.53;5021909;28;20119;-70
2023/05/11 04:10:34;;;;;;;1999.90;842.40;;;;;;;11.40;100.00;101035.38;5036299;28;20049;-74
2023/05/11 04:13:00;;;;;;;1939.17;533.10;;;;;;;11.38;100.00;101028.50;5021543;28;20034;-76
2023/05/11 04:15:25;;;;;;;1589.55;559.70;;;;;;;11.45;100.00;101034.00;5018718;28;20449;-73
2023/05/11 04:17:51;;;;;;;1999.90;768.57;;;;;;;11.50;100.00;101039.75;5027988;28;20021;-71
2023/05/11 04:20:16;;;;;;;1739.83;608.70;;;;;;;11.49;100.00;101043.41;5025889;28;20038;-71
2023/05/11 04:22:43;;;;;;;1562.93;560.92;;;;;;;11.42;100.00;101029.84;5009952;28;20109;-73
2023/05/11 04:25:08;;;;;;;1603.10;573.83;;;;;;;11.44;100.00;101029.69;5015031;28;20120;-73
2023/05/11 04:27:34;;;;;;;1999.90;728.30;;;;;;;11.40;100.00;101034.50;5038721;28;20040;-73
2023/05/11 04:30:00;;;;;;;1999.90;728.97;;;;;;;11.44;100.00;101037.69;5021615;28;20042;-70
2023/05/11 04:32:28;;;;;;;1999.90;892.00;;;;;;;11.45;100.00;101036.69;5021075;28;20025;-70
2023/05/11 04:34:54;;;;;;;1999.90;721.90;;;;;;;11.49;100.00;101030.84;5037894;28;20036;-72
2023/05/11 04:37:22;;;;;;;1999.90;646.33;;;;;;;11.55;100.00;101037.41;5029910;28;20409;-70
2023/05/11 04:39:47;;;;;;;950.47;355.08;;;;;;;11.48;100.00;101034.53;5029969;28;20045;-70
2023/05/11 04:42:13;;;;;;;1999.90;696.30;;;;;;;11.55;100.00;101042.75;5021482;28;20159;-71
2023/05/11 04:44:39;;;;;;;1999.90;761.38;;;;;;;11.58;100.00;101037.09;5021417;28;20148;-71
2023/05/11 04:47:05;;;;;;;1999.90;744.10;;;;;;;11.62;100.00;101039.28;5018731;28;20025;-76
2023/05/11 04:49:31;;;;;;;1999.90;913.85;;;;;;;11.61;100.00;101026.06;5033023;28;20109;-74
2023/05/11 04:51:56;;;;;;;1674.80;559.53;;;;;;;11.57;100.00;101035.41;5019392;28;20402;-70
2023/05/11 04:54:21;;;;;;;1999.90;741.10;;;;;;;11.66;100.00;101037.13;5016546;28;20025;-70
2023/05/11 04:56:48;;;;;;;1999.90;872.72;;;;;;;11.58;100.00;101032.56;5021340;28;20621;-70
2023/05/11 04:59:13;;;;;;;1999.90;823.30;;;;;;;11.66;100.00;101031.78;5038040;28;20048;-71
2023/05/11 05:01:39;;;;;;;1892.57;545.50;;;;;;;11.69;100.00;101027.94;5015014;28;20084;-73
2023/05/11 05:04:04;;;;;;;1919.90;698.80;;;;;;;11.71;100.00;101031.28;5021638;28;20123;-70
2023/05/11 05:06:31;;;;;;;1999.90;936.87;;;;;;;11.63;100.00;101029.41;5037708;28;20041;-74
2023/05/11 05:08:56;;;;;;;1999.90;890.92;;;;;;;11.68;100.00;101035.09;5004958;28;20332;-70
2023/05/11 05:11:23;;;;;;;1999.90;836.92;;;;;;;11.77;100.00;101034.13;5016376;28;20485;-71
2023/05/11 05:13:48;;;;;;;;;;;;;;;11.78;100.00;101027.78;5037670;28;20022;-70
2023/05/11 05:16:13;;;;;;;1999.90;837.17;;;;;;;11.86;100.00;101035.00;5029688;28;19957;-72
2023/05/11 05:18:39;;;;;;;1999.90;743.83;;;;;;;12.00;100.00;101034.38;5014597;28;20033;-75
2023/05/11 05:21:04;;;;;;;1999.90;876.73;;;;;;;12.11;100.00;101032.41;5031628;28;20017;-70
2023/05/11 05:23:30;;;;;;;1999.90;999.90;;;;;;;12.17;100.00;101031.72;5041270;28;20246;-76
2023/05/11 05:25:55;;;;;;;1999.90;992.15;;;;;;;12.23;100.00;101021.19;5024689;28;20037;-71
2023/05/11 05:28:21;;;;;;;1999.90;896.47;;;;;;;12.32;100.00;101023.88;5030183;28;20038;-70
2023/05/11 05:30:46;;;;;;;1999.90;814.63;;;;;;;12.31;100.00;101017.66;5029808;28;20038;-71
2023/05/11 05:33:13;;;;;;;1999.90;910.15;;;;;;;12.32;100.00;101019.38;5017472;28;20029;-71
2023/05/11 05:35:38;;;;;;;1999.90;863.80;;;;;;;12.27;100.00;101015.50;5033165;28;20448;-71
2023/05/11 05:38:03;;;;;;;1999.90;892.00;;;;;;;12.25;100.00;101013.84;5008478;28;20071;-71
2023/05/11 05:40:29;;;;;;;1999.90;949.88;;;;;;;12.33;100.00;101018.34;5026453;28;20651;-72
2023/05/11 05:42:55;;;;;;;1999.90;972.08;;;;;;;12.27;100.00;101018.16;5023280;28;20025;-70
2023/05/11 05:45:22;;;;;;;1999.90;996.80;;;;;;;12.32;100.00;101026.56;5012775;28;20119;-71
2023/05/11 05:47:50;;;;;;;;;;;;;;;12.25;100.00;101024.53;5025054;28;20037;-72
2023/05/11 05:50:15;;;;;;;1999.90;881.33;;;;;;;12.28;100.00;101033.25;5039620;28;19940;-72
2023/05/11 05:52:41;;;;;;;1999.90;827.92;;;;;;;12.23;100.00;101031.06;5013100;28;20119;-72
2023/05/11 05:55:07;;;;;;;1999.90;932.53;;;;;;;12.20;100.00;101034.91;5008800;28;20429;-72
2023/05/11 05:57:33;;;;;;;1999.90;892.05;;;;;;;12.24;100.00;101036.28;5036382;28;20034;-71
2023/05/11 06:00:00;;;;;;;1999.90;955.58;;;;;;;12.26;100.00;101036.09;5024262;28;20026;-75
2023/05/11 06:02:26;;;;;;;1999.90;883.60;;;;;;;12.35;100.00;101043.13;5034717;28;20500;-72
2023/05/11 06:04:52;;;;;;;1999.90;859.63;;;;;;;12.34;100.00;101044.13;5026214;28;20036;-72
2023/05/11 06:07:17;;;;;;;1991.57;702.37;;;;;;;12.39;100.00;101051.66;5039572;28;20544;-73
2023/05/11 06:09:42;;;;;;;1999.90;910.20;;;;;;;12.49;100.00;101052.31;5016192;28;20028;-70
2023/05/11 06:12:08;;;;;;;1999.90;963.57;;;;;;;12.54;100.00;101062.53;5034583;28;20086;-72
2023/05/11 06:14:37;;;;;;;1999.90;844.00;;;;;;;12.65;100.00;101062.19;5040353;28;20041;-72
2023/05/11 06:17:02;;;;;;;1999.90;994.93;;;;;;;12.75;100.00;101056.66;5040553;28;20067;-71
2023/05/11 06:19:28;;;;;;;1999.90;749.90;;;;;;;12.61;100.00;101042.09;5024808;28;20107;-71
2023/05/11 06:21:57;;;;;;;1999.90;999.90;;;;;;;12.64;100.00;101047.97;5042326;28;20288;-74
2023/05/11 06:24:22;;;;;;;1999.90;925.65;;;;;;;12.60;100.00;101043.97;5008913;28;20389;-74
2023/05/11 06:26:48;;;;;;;1999.90;756.30;;;;;;;12.74;100.00;101049.66;5033016;28;20489;-73
2023/05/11 06:29:14;;;;;;;1999.90;708.33;;;;;;;12.77;100.00;101033.22;5027975;28;20381;-72
2023/05/11 06:31:40;;;;;;;1999.90;837.25;;;;;;;12.91;100.00;101045.09;5015478;28;20042;-75
2023/05/11 06:34:08;;;;;;;1999.90;852.35;;;;;;;12.79;100.00;101031.22;5036053;28;20069;-74
2023/05/11 06:36:34;;;;;;;1999.90;982.72;;;;;;;12.73;100.00;101034.56;5017886;28;20848;-73
2023/05/11 06:39:00;;;;;;;1999.90;872.55;;;;;;;12.94;100.00;101048.25;5016919;28;20029;-72
2023/05/11 06:41:25;;;;;;;1999.90;822.85;;;;;;;12.84;100.00;101039.56;5041330;28;20491;-72
2023/05/11 06:43:51;;;;;;;1999.90;809.38;;;;;;;12.81;100.00;101031.88;5021740;28;20021;-72
2023/05/11 06:46:19;;;;;;;1999.90;897.20;;;;;;;12.97;100.00;101044.41;5009950;28;20034;-72
2023/05/11 06:48:45;;;;;;;1999.90;847.63;;;;;;;12.83;100.00;101037.88;5019732;28;20024;-72
2023/05/11 06:51:10;;;;;;;1999.90;891.03;;;;;;;12.86;100.00;101046.44;5019595;28;20049;-73
2023/05/11 06:53:36;;;;;;;1999.90;916.25;;;;;;;12.86;100.00;101049.13;5039528;28;20108;-72
2023/05/11 06:56:02;;;;;;;1999.90;999.90;;;;;;;12.99;100.00;101047.75;5018024;28;20117;-71
2023/05/11 06:58:28;;;;;;;1999.90;991.90;;;;;;;13.13;100.00;101054.25;5023765;28;20030;-73
2023/05/11 07:00:53;;;;;;;1999.90;762.60;;;;;;;13.21;100.00;101059.59;5020999;28;20102;-73
2023/05/11 07:03:18;;;;;;;1999.90;852.93;;;;;;;13.16;100.00;101059.25;5021648;28;20577;-73
2023/05/11 07:05:44;;;;;;;1999.90;800.37;;;;;;;13.06;100.00;101059.44;5026363;28;21009;-72
2023/05/11 07:08:09;;;;;;;1999.90;904.57;;;;;;;13.18;100.00;101066.16;5020918;28;20037;-72
2023/05/11 07:10:35;;;;;;;1999.90;833.87;;;;;;;13.22;100.00;101058.56;5024305;28;20064;-73
2023/05/11 07:13:00;;;;;;;1999.90;466.83;;;;;;;13.16;100.00;101056.56;5020772;28;20535;-71
2023/05/11 07:15:25;;;;;;;1999.90;892.30;;;;;;;13.09;100.00;101059.13;5023442;28;20025;-72
2023/05/11 07:17:51;;;;;;;1999.90;656.97;;;;;;;13.09;100.00;101056.44;5022022;28;20670;-72
2023/05/11 07:20:16;;;;;;;1999.90;858.00;;;;;;;13.15;100.00;101069.16;5021275;28;20043;-73
2023/05/11 07:22:42;;;;;;;1999.90;746.93;;;;;;;13.20;100.00;101068.63;5020874;28;20079;-73
2023/05/11 07:25:10;;;;;;;1999.90;832.07;;;;;;;13.27;100.00;101073.19;5018444;28;20464;-74
2023/05/11 07:27:36;;;;;;;1999.90;999.90;;;;;;;13.26;100.00;101070.63;5025172;28;20083;-72
2023/05/11 07:30:02;;;;;;;1999.90;887.37;;;;;;;13.28;100.00;101068.66;5017335;28;20041;-72
2023/05/11 07:32:28;;;;;;;1999.90;922.63;;;;;;;13.28;100.00;101080.22;5020426;28;20036;-72
2023/05/11 07:34:53;;;;;;;1999.90;819.27;;;;;;;13.33;100.00;101076.19;5018745;28;20041;-73
2023/05/11 07:37:18;;;;;;;1999.90;737.67;;;;;;;13.35;100.00;101066.97;5023062;28;20159;-73
2023/05/11 07:39:44;;;;;;;1999.90;889.57;;;;;;;13.40;100.00;101069.94;5039396;28;20033;-72
2023/05/11 07:42:09;;;;;;;1999.90;795.10;;;;;;;13.42;100.00;101072.47;5021132;28;20405;-71
2023/05/11 07:44:34;;;;;;;1999.90;770.43;;;;;;;13.47;100.00;101083.50;5020049;28;20087;-71
2023/05/11 07:47:00;;;;;;;1999.90;754.03;;;;;;;13.45;100.00;101075.63;5022718;28;20352;-72
2023/05/11 07:49:25;;;;;;;1999.90;964.53;;;;;;;13.38;100.00;101063.91;5018451;28;20384;-72
2023/05/11 07:51:51;;;;;;;1999.90;818.53;;;;;;;13.46;100.00;101082.69;5034526;28;20464;-72
2023/05/11 07:54:17;;;;;;;1999.90;536.47;;;;;;;13.36;100.00;101063.25;5024385;28;20549;-72
2023/05/11 07:56:42;;;;;;;1999.90;789.50;;;;;;;13.38;100.00;101080.00;5024792;28;20021;-72
2023/05/11 07:59:07;;;;;;;1999.90;642.37;;;;;;;13.40;100.00;101078.00;5004955;28;20120;-75
2023/05/11 08:01:33;;;;;;;1999.90;952.57;;;;;;;13.43;100.00;101088.38;5017774;28;20423;-73
2023/05/11 08:03:59;;;;;;;1999.90;921.63;;;;;;;13.38;100.00;101090.72;5019808;28;20059;-72
2023/05/11 08:06:24;;;;;;;1999.90;867.25;;;;;;;13.36;100.00;101094.59;5016499;28;21039;-71
2023/05/11 08:08:49;;;;;;;1999.90;958.07;;;;;;;13.38;100.00;101119.41;5006708;28;20076;-73
2023/05/11 08:11:15;;;;;;;1999.90;996.97;;;;;;;13.32;100.00;101123.59;5002900;28;20042;-74
2023/05/11 08:13:40;;;;;;;1999.90;827.63;;;;;;;13.26;100.00;101137.66;5003766;28;20053;-71
2023/05/11 08:16:06;;;;;;;1999.90;916.53;;;;;;;13.28;100.00;101143.72;5019281;28;20018;-70
2023/05/11 08:18:31;;;;;;;1999.90;995.78;;;;;;;13.26;100.00;101146.53;5016710;28;20025;-71
2023/05/11 08:20:56;;;;;;;1999.90;961.50;;;;;;;13.27;100.00;101158.09;5036959;28;20392;-70
2023/05/11 08:23:25;;;;;;;1999.90;999.90;;;;;;;13.24;100.00;101161.97;5003662;28;20140;-73
2023/05/11 08:25:54;;;;;;;1999.90;957.77;;;;;;;13.32;100.00;101169.19;5003940;28;20033;-74
2023/05/11 08:28:20;;;;;;;1999.90;999.90;;;;;;;13.28;100.00;101152.59;5017821;28;20925;-75
2023/05/11 08:30:45;;;;;;;1999.90;999.90;;;;;;;13.23;100.00;101143.38;5030029;28;20121;-71
2023/05/11 08:33:12;;;;;;;1999.90;922.90;;;;;;;13.26;100.00;101159.13;5007784;28;20112;-70
2023/05/11 08:35:38;;;;;;;1999.90;908.70;;;;;;;13.36;100.00;101162.47;5016010;28;20489;-71
2023/05/11 08:38:04;;;;;;;;;;;;;;;13.33;100.00;101154.78;5038783;28;20040;-73
2023/05/11 08:40:29;;;;;;;;;;;;;;;13.27;100.00;101152.72;5023133;28;19913;-73
2023/05/11 08:42:58;;;;;;;1999.90;505.27;;;;;;;13.28;100.00;101149.09;5005169;28;19924;-73
2023/05/11 08:45:24;;;;;;;1999.90;724.88;;;;;;;13.21;100.00;101146.22;5009791;28;20100;-70
2023/05/11 08:47:51;;;;;;;1999.90;999.90;;;;;;;13.16;100.00;101153.94;5022911;28;20853;-75
2023/05/11 08:50:17;;;;;;;1999.90;999.90;;;;;;;13.18;100.00;101156.44;5032385;28;20363;-70
2023/05/11 08:52:43;;;;;;;1999.90;983.63;;;;;;;13.23;100.00;101154.94;5006897;28;20042;-75
2023/05/11 08:55:08;;;;;;;1999.90;804.57;;;;;;;13.29;100.00;101156.94;5018402;28;20025;-71
2023/05/11 08:57:34;;;;;;;1999.90;881.35;;;;;;;13.07;100.00;101142.38;5027473;28;21257;-70
2023/05/11 09:00:04;;;;;;;1999.90;999.90;;;;;;;13.19;100.00;101172.38;5006360;28;20044;-73
2023/05/11 09:02:30;;;;;;;1999.90;906.45;;;;;;;13.33;100.00;101189.63;5021349;28;20036;-71
2023/05/11 09:04:58;;;;;;;1999.90;936.67;;;;;;;13.35;100.00;101184.94;5005336;28;20034;-70
2023/05/11 09:07:23;;;;;;;1999.90;802.25;;;;;;;13.19;100.00;101169.69;5012238;28;20038;-69
2023/05/11 09:09:49;;;;;;;1999.90;917.72;;;;;;;13.26;100.00;101183.25;5013233;28;20021;-71
2023/05/11 09:12:15;;;;;;;1999.90;940.17;;;;;;;13.31;100.00;101186.28;5023127;28;20038;-71
2023/05/11 09:14:41;;;;;;;1999.90;919.65;;;;;;;13.29;100.00;101182.94;5022008;28;20087;-72
2023/05/11 09:17:06;;;;;;;1999.90;882.42;;;;;;;13.32;100.00;101177.22;5020233;28;20026;-71
2023/05/11 09:19:32;;;;;;;1999.90;890.70;;;;;;;13.31;100.00;101183.59;5008260;28;20030;-70
2023/05/11 09:21:58;;;;;;;1999.90;865.37;;;;;;;13.31;100.00;101191.66;5012794;28;20061;-71
2023/05/11 09:24:24;;;;;;;1999.90;989.00;;;;;;;13.19;100.00;101182.25;5021295;28;20029;-70
2023/05/11 09:27:05;;;;;;;1999.90;961.65;;;;;;;13.42;100.00;101203.88;5013894;28;20485;-75
2023/05/11 09:29:31;;;;;;;1999.90;998.85;;;;;;;13.41;100.00;101207.56;5009800;28;20037;-70
2023/05/11 09:31:56;;;;;;;1999.90;999.90;;;;;;;13.49;100.00;101210.25;5020113;28;20158;-70
2023/05/11 09:34:22;;;;;;;1999.90;913.50;;;;;;;13.50;100.00;101204.69;5025537;28;20033;-71
2023/05/11 09:36:53;;;;;;;1999.90;951.40;;;;;;;13.52;100.00;101201.84;5036024;28;20025;-71
2023/05/11 09:39:36;;;;;;;1999.90;842.78;;;;;;;13.56;100.00;101194.31;5024966;28;20045;-69
2023/05/11 09:42:15;;;;;;;1999.90;990.25;;;;;;;13.83;100.00;101203.78;5020067;28;20029;-72
2023/05/11 09:44:41;;;;;;;1999.90;999.90;;;;;;;13.88;100.00;101186.16;5037195;28;20063;-71
2023/05/11 09:47:11;;;;;;;1999.90;999.90;;;;;;;14.04;100.00;101181.72;5028679;28;20112;-69
2023/05/11 09:49:38;;;;;;;1999.90;935.83;;;;;;;14.19;100.00;101169.25;5039178;28;20041;-70
2023/05/11 09:52:04;;;;;;;1999.90;999.90;;;;;;;14.33;100.00;101156.91;5034960;28;20025;-70
2023/05/11 09:54:30;;;;;;;1999.90;878.28;;;;;;;14.51;100.00;101140.50;5019101;28;20033;-74
2023/05/11 09:56:57;;;;;;;1999.90;976.72;;;;;;;14.58;100.00;101119.97;5020489;28;20056;-72
2023/05/11 09:59:37;;;;;;;1999.90;966.05;;;;;;;14.95;100.00;101115.66;5020965;28;20089;-71
2023/05/11 10:02:24;;;;;;;1999.90;646.80;;;;;;;15.30;100.00;101079.16;5019317;28;20105;-73
2023/05/11 10:04:53;;;;;;;1999.90;554.08;;;;;;;15.18;100.00;101016.91;5004221;28;20045;-73
2023/05/11 10:07:33;;;;;;;1999.90;636.65;;;;;;;15.58;100.00;101016.59;5024012;28;20084;-70
2023/05/11 10:10:01;;;;;;;1999.90;607.50;;;;;;;15.99;100.00;100997.19;5025346;28;20045;-69
2023/05/11 10:12:27;;;;;;;1999.90;999.90;;;;;;;16.15;100.00;100947.63;5018312;28;20033;-70
2023/05/11 10:15:07;;;;;;;1999.90;505.98;;;;;;;16.81;100.00;100949.97;5025259;28;20072;-71
2023/05/11 10:17:33;;;;;;;1931.90;199.38;;;;;;;17.19;100.00;100847.06;5020856;28;20052;-72
2023/05/11 10:20:00;;;;;;;1999.90;639.40;;;;;;;17.46;100.00;100788.53;5038504;28;20052;-71
2023/05/11 10:22:27;;;;;;;1999.90;999.90;;;;;;;17.35;100.00;100689.31;5010638;28;20060;-72
2023/05/11 10:24:55;;;;;;;1999.90;999.90;;;;;;;17.61;100.00;100683.91;5015052;28;20049;-72
2023/05/11 10:27:21;;;;;;;1999.90;726.88;;;;;;;17.35;100.00;100575.97;5025222;28;20085;-71
2023/05/11 10:29:47;;;;;;;1999.90;999.90;;;;;;;17.41;100.00;100584.06;5024631;28;20052;-70
2023/05/11 10:32:15;;;;;;;1999.90;999.90;;;;;;;17.49;100.00;100586.56;5003912;28;20084;-70
2023/05/11 10:34:42;;;;;;;1944.65;791.60;;;;;;;17.71;100.00;100534.97;5003547;28;20091;-70
2023/05/11 10:37:08;;;;;;;1999.90;234.93;;;;;;;17.96;100.00;100527.00;5013418;28;20030;-72
2023/05/11 10:39:37;;;;;;;;;;;;;;;18.18;100.00;100502.34;5019642;28;20024;-70
2023/05/11 10:42:35;;;;;;;1999.90;999.90;;;;;;;18.94;100.00;100485.91;5014035;28;19994;-69
2023/05/11 10:45:17;;;;;;;1999.90;999.90;;;;;;;19.10;100.00;100316.72;5023139;28;20052;-72